Time;durP1;ratioP1;P1;durP2;ratioP2;P2;SDS_P1;SDS_P2;PMS_P1;PMS_P2;Temp;Humidity;BMP_temperature;BMP_pressure;BME280_temperature;BME280_humidity;BME280_pressure;Samples;Min_cycle;Max_cycle;Signal;HPM_P1;HPM_P2
2023/07/14 00:01:45;;;;;;;6.30;3.55;;;27.60;99.90;;;;;;1816552;77;21099;-75
2023/07/14 00:04:20;;;;;;;5.85;3.20;;;27.50;99.90;;;;;;1816116;77;21107;-78
2023/07/14 00:06:55;;;;;;;8.55;3.60;;;27.60;99.90;;;;;;1784779;79;21166;-77
2023/07/14 00:09:31;;;;;;;7.65;3.67;;;27.60;99.90;;;;;;1828651;77;21109;-79
2023/07/14 00:12:06;;;;;;;5.35;3.22;;;27.80;99.90;;;;;;1827145;77;21181;-80
2023/07/14 00:14:40;;;;;;;6.92;3.52;;;27.60;99.90;;;;;;1818768;77;21619;-81
2023/07/14 00:17:14;;;;;;;9.08;3.95;;;27.70;99.90;;;;;;1825220;77;21236;-78
2023/07/14 00:19:47;;;;;;;8.23;3.25;;;27.70;99.90;;;;;;1815659;77;21465;-79
2023/07/14 00:22:22;;;;;;;7.83;3.50;;;27.60;99.90;;;;;;1824383;77;21091;-82
2023/07/14 00:24:58;;;;;;;8.78;3.80;;;27.80;99.90;;;;;;1836130;77;21601;-81
2023/07/14 00:27:33;;;;;;;6.42;3.40;;;27.80;99.90;;;;;;1824882;77;21707;-78
2023/07/14 00:30:14;;;;;;;7.70;3.70;;;27.80;99.90;;;;;;1819545;77;21553;-80
2023/07/14 00:32:53;;;;;;;9.00;3.75;;;27.80;99.90;;;;;;1790143;79;21136;-76
2023/07/14 00:35:31;;;;;;;7.37;3.17;;;27.90;99.90;;;;;;1825076;77;21127;-77
2023/07/14 00:38:05;;;;;;;6.90;3.37;;;28.20;99.90;;;;;;1818723;77;21197;-78
2023/07/14 00:40:49;;;;;;;5.17;3.12;;;28.00;99.90;;;;;;1810877;79;21540;-79
2023/07/14 00:43:29;;;;;;;10.78;3.58;;;28.00;99.90;;;;;;1794317;79;21166;-76
2023/07/14 00:46:04;;;;;;;9.53;3.95;;;28.00;99.90;;;;;;1787296;79;21249;-76
2023/07/14 00:48:36;;;;;;;8.55;4.00;;;28.10;99.90;;;;;;1810367;78;21171;-82
2023/07/14 00:51:15;;;;;;;13.58;5.75;;;28.10;99.90;;;;;;1811613;78;21807;-81
2023/07/14 00:53:48;;;;;;;7.97;3.70;;;28.10;99.90;;;;;;1805034;79;21072;-79
2023/07/14 00:56:42;;;;;;;10.38;3.45;;;28.10;99.90;;;;;;1826016;77;21189;-82
2023/07/14 00:59:17;;;;;;;6.33;3.72;;;28.20;99.90;;;;;;1818301;77;21598;-80
2023/07/14 01:02:12;;;;;;;11.28;4.08;;;28.20;99.90;;;;;;1819413;77;21207;-79
2023/07/14 01:04:48;;;;;;;7.28;3.40;;;28.30;99.90;;;;;;1816775;77;21278;-68
2023/07/14 01:07:23;;;;;;;8.03;3.30;;;28.30;99.90;;;;;;1821020;77;21165;-69
2023/07/14 01:09:58;;;;;;;9.68;3.55;;;28.30;99.90;;;;;;1822618;77;21161;-67
2023/07/14 01:12:33;;;;;;;9.20;3.62;;;28.30;99.90;;;;;;1817498;77;21193;-68
2023/07/14 01:15:10;;;;;;;13.08;3.60;;;28.30;99.90;;;;;;1831751;77;21138;-68
2023/07/14 01:17:44;;;;;;;10.23;4.17;;;28.30;99.90;;;;;;1810909;79;21189;-67
2023/07/14 01:20:17;;;;;;;13.28;4.83;;;28.40;99.90;;;;;;1815748;77;21542;-69
2023/07/14 01:22:54;;;;;;;16.77;4.92;;;28.40;99.90;;;;;;1810830;79;21135;-68
2023/07/14 01:25:44;;;;;;;8.78;3.47;;;28.40;99.90;;;;;;1816017;77;21150;-69
2023/07/14 01:28:19;;;;;;;12.65;4.67;;;28.50;99.90;;;;;;1808950;77;21118;-69
2023/07/14 01:30:52;;;;;;;14.55;4.30;;;28.50;99.90;;;;;;1813632;77;21154;-69
2023/07/14 01:33:29;;;;;;;7.85;3.77;;;28.60;99.90;;;;;;1812959;77;21118;-71
2023/07/14 01:36:03;;;;;;;7.17;3.25;;;28.60;99.90;;;;;;1815165;77;21088;-69
2023/07/14 01:38:35;;;;;;;8.10;3.90;;;;;;;;;;1814867;77;21190;-71
2023/07/14 01:41:11;;;;;;;8.35;3.45;;;28.60;99.90;;;;;;1810932;77;21091;-68
2023/07/14 01:43:45;;;;;;;14.75;3.85;;;28.60;99.90;;;;;;1816816;77;21221;-68
2023/07/14 01:46:23;;;;;;;10.05;4.50;;;28.70;99.90;;;;;;1813001;77;21100;-67
2023/07/14 01:49:06;;;;;;;11.35;4.15;;;28.70;99.90;;;;;;1812870;77;21151;-69
2023/07/14 01:51:43;;;;;;;17.00;5.65;;;28.80;99.90;;;;;;1823400;77;21563;-67
2023/07/14 01:54:33;;;;;;;11.18;4.47;;;28.90;99.90;;;;;;1787058;78;21108;-67
2023/07/14 01:57:07;;;;;;;8.48;4.15;;;28.90;99.90;;;;;;1770866;79;21594;-70
2023/07/14 01:59:41;;;;;;;16.05;5.33;;;29.00;99.90;;;;;;1786173;78;21587;-68
2023/07/14 02:02:16;;;;;;;25.75;6.15;;;29.00;99.90;;;;;;1799982;78;21921;-68
2023/07/14 02:04:50;;;;;;;10.15;3.90;;;29.00;99.90;;;;;;1807047;78;21234;-67
2023/07/14 02:07:23;;;;;;;47.20;8.20;;;29.10;99.90;;;;;;1811758;78;21154;-69
2023/07/14 02:09:56;;;;;;;9.08;4.00;;;29.20;99.90;;;;;;1814258;78;21158;-71
2023/07/14 02:12:31;;;;;;;11.83;5.28;;;29.30;99.90;;;;;;1817395;78;21204;-68
2023/07/14 02:15:09;;;;;;;10.03;3.80;;;29.30;99.90;;;;;;1810127;78;21115;-69
2023/07/14 02:17:42;;;;;;;18.35;7.28;;;29.40;99.90;;;;;;1813428;78;21809;-68
2023/07/14 02:20:27;;;;;;;24.02;9.55;;;29.50;99.90;;;;;;1803874;78;21158;-68
2023/07/14 02:23:01;;;;;;;18.25;4.67;;;29.50;99.90;;;;;;1809241;78;21122;-69
2023/07/14 02:25:42;;;;;;;11.10;4.17;;;29.60;99.90;;;;;;1806663;78;21080;-68
2023/07/14 02:28:13;;;;;;;20.90;4.83;;;29.60;99.90;;;;;;1801188;78;21202;-68
2023/07/14 02:30:47;;;;;;;18.98;5.17;;;29.60;99.90;;;;;;1790841;78;21636;-69
2023/07/14 02:33:31;;;;;;;10.48;4.03;;;29.70;99.90;;;;;;1802867;78;21108;-68
2023/07/14 02:36:16;;;;;;;20.43;6.37;;;29.70;99.90;;;;;;1813821;78;21149;-68
2023/07/14 02:38:50;;;;;;;34.18;7.35;;;29.90;99.90;;;;;;1796052;78;21143;-68
2023/07/14 02:41:23;;;;;;;18.80;4.10;;;30.00;99.90;;;;;;1806842;78;21154;-68
2023/07/14 02:43:57;;;;;;;46.58;8.98;;;30.10;99.90;;;;;;1803159;78;21195;-70
2023/07/14 02:46:41;;;;;;;17.17;6.30;;;30.20;99.90;;;;;;1781840;79;21190;-67
2023/07/14 02:49:14;;;;;;;8.10;4.17;;;30.30;99.90;;;;;;1811867;78;21664;-69
2023/07/14 02:51:46;;;;;;;23.98;7.58;;;30.30;99.90;;;;;;1797433;78;21128;-68
2023/07/14 02:54:19;;;;;;;10.15;3.87;;;30.40;99.90;;;;;;1763234;80;21186;-68
2023/07/14 02:56:51;;;;;;;8.53;3.55;;;30.50;99.90;;;;;;1789947;78;21230;-66
2023/07/14 02:59:25;;;;;;;6.03;3.35;;;30.60;99.90;;;;;;1822532;77;21100;-68
2023/07/14 03:01:58;;;;;;;7.25;3.67;;;30.60;99.90;;;;;;1825465;77;21095;-68
2023/07/14 03:04:30;;;;;;;31.65;7.87;;;30.70;99.90;;;;;;1826038;77;21123;-68
2023/07/14 03:07:06;;;;;;;;;;;30.80;99.60;;;;;;1807727;77;21118;-68
2023/07/14 03:09:39;;;;;;;9.83;3.62;;;30.90;99.30;;;;;;1826949;77;20231;-67
2023/07/14 03:12:11;;;;;;;28.23;6.65;;;31.00;99.30;;;;;;1823517;77;21147;-68
2023/07/14 03:14:43;;;;;;;19.35;4.65;;;31.10;99.20;;;;;;1816853;77;21699;-67
2023/07/14 03:17:15;;;;;;;11.45;3.30;;;31.20;99.00;;;;;;1830974;77;21169;-69
2023/07/14 03:19:47;;;;;;;6.80;3.60;;;31.30;98.70;;;;;;1835503;77;21099;-70
2023/07/14 03:22:23;;;;;;;11.93;4.80;;;31.30;98.60;;;;;;1833327;77;21146;-67
2023/07/14 03:24:54;;;;;;;17.27;4.95;;;31.40;98.20;;;;;;1833890;77;21083;-69
2023/07/14 03:27:29;;;;;;;;;;;31.40;98.50;;;;;;1834180;77;21091;-68
2023/07/14 03:30:03;;;;;;;23.73;5.83;;;31.40;98.30;;;;;;1837860;77;20132;-68
2023/07/14 03:32:35;;;;;;;12.85;4.75;;;31.50;98.20;;;;;;1823282;77;21084;-68
2023/07/14 03:35:09;;;;;;;29.30;5.25;;;31.50;98.40;;;;;;1821624;77;21170;-68
2023/07/14 03:37:45;;;;;;;13.78;5.55;;;31.60;97.10;;;;;;1830581;77;21169;-69
2023/07/14 03:40:16;;;;;;;12.73;3.58;;;31.70;97.20;;;;;;1833090;77;21142;-68
2023/07/14 03:42:50;;;;;;;7.83;3.10;;;31.80;97.50;;;;;;1828816;77;21083;-67
2023/07/14 03:45:25;;;;;;;24.55;5.40;;;31.90;97.60;;;;;;1825997;77;21165;-70
2023/07/14 03:47:59;;;;;;;13.35;4.53;;;32.00;97.30;;;;;;1814307;77;21141;-69
2023/07/14 03:50:35;;;;;;;5.97;3.02;;;32.10;97.20;;;;;;1793273;80;21532;-67
2023/07/14 03:53:07;;;;;;;12.65;3.30;;;32.10;97.10;;;;;;1832241;77;21951;-67
2023/07/14 03:55:40;;;;;;;5.50;2.70;;;32.20;96.40;;;;;;1835666;77;21229;-68
2023/07/14 03:58:12;;;;;;;7.58;3.12;;;32.20;95.80;;;;;;1833368;77;21103;-70
2023/07/14 04:00:47;;;;;;;12.23;3.47;;;32.10;95.90;;;;;;1802597;79;21218;-69
2023/07/14 04:03:19;;;;;;;33.90;5.33;;;32.10;95.90;;;;;;1796793;78;21268;-67
2023/07/14 04:05:53;;;;;;;13.75;3.27;;;32.00;96.30;;;;;;1806074;78;21163;-66
2023/07/14 04:08:27;;;;;;;6.75;3.12;;;32.10;96.30;;;;;;1799945;78;21099;-68
2023/07/14 04:11:00;;;;;;;6.35;2.00;;;32.10;95.90;;;;;;1830499;78;21205;-67
2023/07/14 04:13:32;;;;;;;5.28;2.70;;;32.20;95.20;;;;;;1812891;78;21211;-69
2023/07/14 04:16:11;;;;;;;7.90;2.67;;;32.10;95.50;;;;;;1842941;77;21122;-68
2023/07/14 04:18:39;;;;;;;15.00;3.15;;;32.10;95.90;;;;;;1804624;78;21707;-67
2023/07/14 04:21:13;;;;;;;11.88;4.03;;;32.00;95.90;;;;;;1822767;77;21195;-68
2023/07/14 04:23:46;;;;;;;11.05;3.77;;;32.10;96.20;;;;;;1811331;77;21161;-68
2023/07/14 04:26:19;;;;;;;6.22;3.17;;;32.20;96.70;;;;;;1808080;78;21587;-68
2023/07/14 04:28:56;;;;;;;6.70;2.80;;;32.20;96.50;;;;;;1797739;79;21213;-69
2023/07/14 04:31:28;;;;;;;6.97;2.75;;;32.30;96.50;;;;;;1838479;77;21495;-67
2023/07/14 04:34:01;;;;;;;14.05;3.60;;;32.40;96.40;;;;;;1827975;77;21078;-69
2023/07/14 04:36:32;;;;;;;12.60;3.90;;;32.50;96.70;;;;;;1794405;79;21179;-69
2023/07/14 04:39:10;;;;;;;10.43;3.92;;;32.60;96.10;;;;;;1797628;79;21189;-68
2023/07/14 04:41:44;;;;;;;17.32;3.47;;;32.70;96.10;;;;;;1829436;77;21095;-68
2023/07/14 04:44:17;;;;;;;5.90;2.70;;;32.80;95.40;;;;;;1820097;77;21620;-68
2023/07/14 04:46:49;;;;;;;12.85;3.72;;;32.80;95.50;;;;;;1830990;77;21158;-69
2023/07/14 04:49:23;;;;;;;5.12;2.33;;;32.90;95.70;;;;;;1806935;79;21184;-69
2023/07/14 04:51:56;;;;;;;5.53;2.35;;;33.00;95.10;;;;;;1833114;77;21553;-68
2023/07/14 04:54:30;;;;;;;5.30;2.33;;;32.90;95.10;;;;;;1847524;77;21224;-69
2023/07/14 04:57:03;;;;;;;12.13;3.20;;;32.90;94.60;;;;;;1842551;77;21498;-68
2023/07/14 04:59:35;;;;;;;9.10;3.50;;;32.90;95.00;;;;;;1816807;76;21118;-68
2023/07/14 05:02:08;;;;;;;7.45;2.20;;;33.00;94.80;;;;;;1805489;78;21267;-69
2023/07/14 05:04:44;;;;;;;3.83;2.10;;;33.10;94.70;;;;;;1811166;78;21188;-70
2023/07/14 05:07:19;;;;;;;9.43;2.83;;;33.20;95.30;;;;;;1788152;78;21560;-67
2023/07/14 05:09:52;;;;;;;5.40;2.02;;;33.30;94.90;;;;;;1799992;78;21137;-68
2023/07/14 05:12:25;;;;;;;7.87;3.40;;;33.30;94.00;;;;;;1807350;78;21165;-67
2023/07/14 05:14:59;;;;;;;7.00;2.40;;;33.30;94.10;;;;;;1813282;78;21131;-68
2023/07/14 05:17:31;;;;;;;3.55;2.00;;;33.30;93.50;;;;;;1797949;78;21564;-69
2023/07/14 05:20:10;;;;;;;5.45;2.25;;;33.30;93.60;;;;;;1797729;78;21062;-68
2023/07/14 05:22:40;;;;;;;5.25;2.45;;;33.30;93.80;;;;;;1795769;78;21127;-68
2023/07/14 05:25:15;;;;;;;6.17;2.45;;;33.40;93.40;;;;;;1803666;78;21166;-68
2023/07/14 05:27:48;;;;;;;4.50;2.10;;;33.40;93.30;;;;;;1795916;78;21192;-67
2023/07/14 05:30:21;;;;;;;5.12;1.72;;;33.50;93.30;;;;;;1794832;78;21545;-69
2023/07/14 05:33:04;;;;;;;5.50;2.00;;;33.60;91.80;;;;;;1795400;78;21666;-68
2023/07/14 05:35:37;;;;;;;2.35;1.20;;;33.60;91.30;;;;;;1799949;78;21196;-67
2023/07/14 05:38:09;;;;;;;3.83;1.57;;;33.70;91.00;;;;;;1798689;78;21135;-67
2023/07/14 05:40:43;;;;;;;3.47;1.67;;;33.80;91.40;;;;;;1797427;78;21067;-67
2023/07/14 05:43:17;;;;;;;3.60;1.40;;;33.80;91.50;;;;;;1791796;78;21121;-68
2023/07/14 05:45:49;;;;;;;2.98;1.22;;;33.90;91.10;;;;;;1795516;78;21141;-69
2023/07/14 05:48:22;;;;;;;7.50;2.15;;;34.00;91.70;;;;;;1791469;78;21232;-68
2023/07/14 05:50:56;;;;;;;4.00;1.70;;;34.10;92.00;;;;;;1790206;78;21091;-68
2023/07/14 05:53:30;;;;;;;6.60;1.95;;;34.10;91.90;;;;;;1780778;78;21242;-69
2023/07/14 05:56:04;;;;;;;3.00;1.20;;;34.20;91.60;;;;;;1812361;78;21185;-68
2023/07/14 05:58:36;;;;;;;3.80;1.60;;;34.30;91.90;;;;;;1808795;78;21139;-68
2023/07/14 06:01:09;;;;;;;4.95;1.37;;;34.30;90.60;;;;;;1828070;77;21166;-68
2023/07/14 06:03:42;;;;;;;4.80;2.35;;;34.20;90.20;;;;;;1801329;79;21146;-67
2023/07/14 06:06:16;;;;;;;3.85;1.30;;;34.20;90.60;;;;;;1803728;78;21134;-71
2023/07/14 06:08:49;;;;;;;5.15;2.00;;;34.20;90.10;;;;;;1795053;79;21572;-69
2023/07/14 06:11:26;;;;;;;4.22;1.40;;;34.30;89.60;;;;;;1825143;77;21076;-69
2023/07/14 06:14:00;;;;;;;4.35;1.40;;;34.30;90.40;;;;;;1831234;77;21163;-68
2023/07/14 06:16:31;;;;;;;3.42;1.57;;;34.20;90.20;;;;;;1798696;79;21095;-68
2023/07/14 06:19:04;;;;;;;2.85;1.45;;;34.20;90.30;;;;;;1807811;78;21511;-70
2023/07/14 06:21:40;;;;;;;3.27;1.47;;;34.20;89.90;;;;;;1785896;79;21151;-68
2023/07/14 06:24:18;;;;;;;4.62;1.67;;;34.00;90.10;;;;;;1800461;78;21082;-70
2023/07/14 06:26:53;;;;;;;3.87;1.25;;;33.90;90.50;;;;;;1786744;79;21628;-68
2023/07/14 06:29:26;;;;;;;5.00;1.60;;;33.80;90.80;;;;;;1789837;80;21167;-71
2023/07/14 06:31:58;;;;;;;5.35;1.50;;;33.60;91.10;;;;;;1819470;77;21723;-68
2023/07/14 06:34:30;;;;;;;9.50;1.75;;;33.50;91.30;;;;;;1834142;77;21119;-68
2023/07/14 06:37:03;;;;;;;3.40;1.87;;;33.30;91.70;;;;;;1788402;79;21274;-68
2023/07/14 06:39:36;;;;;;;13.60;3.37;;;33.30;91.90;;;;;;1821875;77;21114;-69
2023/07/14 06:42:09;;;;;;;15.13;2.40;;;33.40;91.10;;;;;;1820562;77;21107;-69
2023/07/14 06:44:44;;;;;;;5.28;1.67;;;33.40;91.50;;;;;;1818373;77;21055;-68
2023/07/14 06:47:16;;;;;;;10.65;2.98;;;33.50;90.80;;;;;;1789454;79;21127;-69
2023/07/14 06:49:49;;;;;;;11.93;2.30;;;33.40;90.80;;;;;;1794864;78;21090;-68
2023/07/14 06:52:22;;;;;;;4.50;1.60;;;33.40;90.90;;;;;;1795448;79;21829;-67
2023/07/14 06:54:55;;;;;;;6.47;2.05;;;33.40;91.10;;;;;;1829390;77;21631;-70
2023/07/14 06:57:27;;;;;;;25.62;4.35;;;33.50;91.10;;;;;;1839861;77;21114;-69
2023/07/14 07:00:01;;;;;;;20.32;4.40;;;33.50;91.40;;;;;;1823287;77;21320;-67
2023/07/14 07:02:33;;;;;;;34.63;6.72;;;33.60;91.60;;;;;;1802021;78;21163;-70
2023/07/14 07:05:10;;;;;;;11.90;3.25;;;33.60;91.20;;;;;;1800901;78;21167;-69
2023/07/14 07:07:41;;;;;;;5.95;1.87;;;33.70;90.90;;;;;;1791147;79;21178;-69
2023/07/14 07:10:12;;;;;;;4.65;2.02;;;33.90;90.60;;;;;;1794030;79;21132;-67
2023/07/14 07:12:45;;;;;;;7.17;2.12;;;33.90;90.70;;;;;;1808611;78;21127;-69
2023/07/14 07:15:17;;;;;;;15.03;3.25;;;34.00;90.70;;;;;;1816314;79;21237;-68
2023/07/14 07:17:49;;;;;;;9.05;2.70;;;34.00;90.50;;;;;;1838109;77;21564;-70
2023/07/14 07:20:23;;;;;;;6.60;2.45;;;34.10;90.20;;;;;;1796211;79;21103;-69
2023/07/14 07:22:56;;;;;;;9.70;3.47;;;34.10;89.50;;;;;;1808534;78;21234;-69
2023/07/14 07:25:30;;;;;;;7.47;2.83;;;34.10;89.90;;;;;;1793587;79;21154;-68
2023/07/14 07:28:04;;;;;;;15.98;5.42;;;34.00;90.20;;;;;;1800731;78;21132;-69
2023/07/14 07:30:36;;;;;;;12.90;3.08;;;34.00;90.50;;;;;;1794221;79;21084;-67
2023/07/14 07:33:09;;;;;;;15.48;3.35;;;34.10;90.20;;;;;;1814481;78;21132;-68
2023/07/14 07:35:43;;;;;;;8.30;2.40;;;34.20;90.00;;;;;;1799013;78;21143;-68
2023/07/14 07:38:18;;;;;;;11.60;3.35;;;34.10;90.00;;;;;;1825986;77;21071;-68
2023/07/14 07:40:50;;;;;;;8.48;2.80;;;34.10;90.40;;;;;;1842027;77;21507;-67
2023/07/14 07:43:22;;;;;;;5.75;2.10;;;34.10;90.40;;;;;;1825252;77;21083;-68
2023/07/14 07:45:55;;;;;;;7.33;2.47;;;34.10;90.80;;;;;;1827802;77;21141;-68
2023/07/14 07:48:29;;;;;;;5.97;1.60;;;34.10;90.50;;;;;;1803197;78;21550;-70
2023/07/14 07:51:01;;;;;;;5.75;1.60;;;34.10;90.50;;;;;;1807302;78;21188;-68
2023/07/14 07:53:35;;;;;;;4.70;2.10;;;34.20;89.50;;;;;;1798900;78;21084;-67
2023/07/14 07:56:07;;;;;;;6.65;2.85;;;34.20;89.70;;;;;;1786827;79;21553;-68
2023/07/14 07:58:38;;;;;;;7.40;2.22;;;34.20;90.40;;;;;;1825228;77;21072;-68
2023/07/14 08:01:13;;;;;;;7.28;2.50;;;34.30;90.60;;;;;;1813961;77;21071;-69
2023/07/14 08:03:46;;;;;;;13.32;3.08;;;34.30;90.90;;;;;;1814104;78;21110;-70
2023/07/14 08:06:25;;;;;;;10.87;3.47;;;34.30;90.70;;;;;;1785313;79;21141;-68
2023/07/14 08:08:59;;;;;;;14.73;3.85;;;34.30;90.80;;;;;;1826814;77;21079;-68
2023/07/14 08:11:34;;;;;;;15.85;4.12;;;34.30;91.20;;;;;;1838871;77;21173;-68
2023/07/14 08:14:13;;;;;;;10.03;3.12;;;34.20;91.40;;;;;;1790293;79;21624;-67
2023/07/14 08:16:44;;;;;;;12.45;3.95;;;34.20;91.10;;;;;;1797101;79;21519;-69
2023/07/14 08:19:17;;;;;;;15.43;4.25;;;34.20;91.30;;;;;;1814768;78;21111;-68
2023/07/14 08:21:48;;;;;;;13.78;4.08;;;34.20;91.20;;;;;;1794977;79;21102;-68
2023/07/14 08:24:21;;;;;;;14.95;3.17;;;34.10;91.20;;;;;;1815671;78;21088;-69
2023/07/14 08:26:55;;;;;;;5.35;1.75;;;34.10;91.20;;;;;;1786159;79;21190;-68
2023/07/14 08:29:28;;;;;;;5.72;1.90;;;34.00;91.60;;;;;;1780582;80;21140;-70
2023/07/14 08:32:00;;;;;;;6.87;2.40;;;33.90;91.60;;;;;;1786255;79;21123;-67
2023/07/14 08:34:33;;;;;;;7.05;2.20;;;33.90;91.50;;;;;;1823141;78;21177;-70
2023/07/14 08:37:05;;;;;;;8.85;2.58;;;33.90;91.30;;;;;;1792516;79;21157;-69
2023/07/14 08:39:48;;;;;;;17.62;3.77;;;33.80;91.50;;;;;;1806059;79;21087;-69
2023/07/14 08:42:32;;;;;;;5.28;1.90;;;33.80;91.70;;;;;;1805826;79;21118;-67
2023/07/14 08:45:17;;;;;;;11.33;3.33;;;33.90;91.50;;;;;;1794618;79;21142;-67
2023/07/14 08:48:08;;;;;;;7.40;2.00;;;33.90;92.40;;;;;;1804960;79;21847;-68
2023/07/14 08:50:41;;;;;;;16.65;2.85;;;33.90;91.50;;;;;;1774174;79;21204;-67
2023/07/14 08:53:14;;;;;;;10.35;3.30;;;33.90;91.50;;;;;;1819222;77;21187;-67
2023/07/14 08:55:47;;;;;;;8.10;3.02;;;33.90;91.80;;;;;;1802238;78;21189;-67
2023/07/14 08:58:24;;;;;;;8.73;3.35;;;33.90;91.20;;;;;;1790653;79;21118;-68
2023/07/14 09:01:10;;;;;;;5.10;2.52;;;34.00;91.40;;;;;;1826110;77;22763;-68
2023/07/14 09:03:44;;;;;;;;;;;33.90;91.20;;;;;;1791597;79;21151;-68
2023/07/14 09:06:23;;;;;;;38.02;7.53;;;33.90;91.50;;;;;;1793575;78;20219;-68
2023/07/14 09:08:57;;;;;;;8.55;2.85;;;33.90;91.60;;;;;;1822512;77;21215;-68
2023/07/14 09:11:45;;;;;;;14.28;3.92;;;33.90;91.30;;;;;;1824344;77;21111;-67
2023/07/14 09:14:39;;;;;;;18.30;7.40;;;33.90;91.50;;;;;;1823659;77;21133;-67
2023/07/14 09:17:25;;;;;;;13.10;4.22;;;33.80;91.30;;;;;;1821936;77;21295;-68
2023/07/14 09:20:09;;;;;;;14.40;3.10;;;33.80;91.50;;;;;;1825760;77;21240;-69
2023/07/14 09:23:02;;;;;;;7.83;2.50;;;33.70;91.40;;;;;;1838526;77;21161;-68
2023/07/14 09:25:48;;;;;;;6.47;2.92;;;33.70;91.50;;;;;;1834715;77;21675;-66
2023/07/14 09:28:40;;;;;;;9.83;3.35;;;33.70;91.80;;;;;;1811168;78;21147;-68
2023/07/14 09:31:40;;;;;;;36.88;6.03;;;33.60;92.00;;;;;;1802439;78;21163;-69
2023/07/14 09:34:21;;;;;;;18.92;3.50;;;33.60;92.10;;;;;;1800740;78;21599;-69
2023/07/14 09:36:54;;;;;;;10.85;3.80;;;33.50;92.20;;;;;;1845621;77;21183;-69
2023/07/14 09:39:33;;;;;;;26.75;4.60;;;33.40;92.20;;;;;;1826634;77;21064;-68
2023/07/14 09:42:09;;;;;;;44.05;5.55;;;33.40;92.20;;;;;;1838311;77;21572;-69
2023/07/14 09:44:41;;;;;;;7.83;2.33;;;33.30;92.40;;;;;;1820058;77;21538;-67
2023/07/14 09:47:14;;;;;;;16.85;3.10;;;33.30;92.40;;;;;;1832170;77;21167;-70
2023/07/14 09:50:01;;;;;;;37.73;3.87;;;33.10;92.60;;;;;;1842427;77;21082;-67
2023/07/14 09:52:37;;;;;;;23.35;3.37;;;32.80;92.40;;;;;;1834571;77;21158;-68
2023/07/14 09:55:14;;;;;;;28.10;4.37;;;32.40;92.60;;;;;;1800628;78;21487;-67
2023/07/14 09:57:47;;;;;;;47.33;4.45;;;32.10;93.00;;;;;;1829610;77;21147;-68
2023/07/14 10:00:25;;;;;;;18.65;3.87;;;31.80;93.70;;;;;;1806684;78;21091;-68
2023/07/14 10:03:07;;;;;;;12.75;3.25;;;31.60;94.00;;;;;;1794663;78;21248;-68
2023/07/14 10:05:47;;;;;;;8.15;2.20;;;31.40;94.50;;;;;;1802943;78;21897;-66
2023/07/14 10:08:34;;;;;;;33.92;6.75;;;31.20;95.50;;;;;;1838013;77;21059;-70
2023/07/14 10:11:29;;;;;;;23.55;5.33;;;31.10;97.60;;;;;;1813576;78;21296;-67
2023/07/14 10:14:07;;;;;;;17.73;4.70;;;30.80;99.40;;;;;;1822029;78;21206;-67
2023/07/14 10:16:44;;;;;;;13.35;2.65;;;30.40;99.90;;;;;;1773612;78;21176;-68
2023/07/14 10:19:19;;;;;;;8.50;1.60;;;30.00;98.80;;;;;;1844853;77;21219;-68
2023/07/14 10:22:01;;;;;;;8.58;2.05;;;29.70;99.40;;;;;;1829633;77;21493;-66
2023/07/14 10:24:37;;;;;;;5.10;1.80;;;29.60;99.50;;;;;;1834311;77;21168;-67
2023/07/14 10:27:22;;;;;;;13.98;5.15;;;29.30;99.60;;;;;;1831522;77;21219;-67
2023/07/14 10:30:06;;;;;;;4.85;1.82;;;29.20;99.90;;;;;;1819779;77;21096;-68
2023/07/14 10:32:53;;;;;;;8.85;2.65;;;29.00;99.90;;;;;;1843480;77;21127;-66
2023/07/14 10:35:28;;;;;;;5.62;1.52;;;29.30;99.90;;;;;;1829920;77;21063;-67
2023/07/14 10:38:03;;;;;;;7.12;1.67;;;29.10;99.90;;;;;;1840451;77;21063;-69
2023/07/14 10:40:41;;;;;;;5.17;1.90;;;29.00;99.90;;;;;;1837060;77;21122;-71
2023/07/14 10:43:26;;;;;;;5.97;2.27;;;29.00;99.90;;;;;;1831247;77;21529;-67
2023/07/14 10:46:06;;;;;;;6.53;2.67;;;29.00;99.90;;;;;;1827950;77;21178;-68
2023/07/14 10:48:41;;;;;;;9.53;3.22;;;29.00;99.90;;;;;;1836059;77;21103;-67
2023/07/14 10:51:42;;;;;;;5.63;1.63;;;29.00;99.90;;;;;;1832752;77;21162;-69
2023/07/14 10:54:22;;;;;;;6.22;2.30;;;29.10;99.90;;;;;;1828124;77;21169;-69
2023/07/14 10:57:03;;;;;;;5.70;2.85;;;29.20;99.90;;;;;;1818817;77;21204;-66
2023/07/14 10:59:52;;;;;;;4.35;1.70;;;29.10;99.90;;;;;;1827625;77;21569;-68
2023/07/14 11:02:27;;;;;;;6.08;1.60;;;29.20;99.90;;;;;;1827701;77;21111;-67
2023/07/14 11:05:06;;;;;;;3.65;1.22;;;29.20;99.90;;;;;;1795639;78;21109;-68
2023/07/14 11:07:39;;;;;;;3.50;1.42;;;29.30;99.90;;;;;;1795644;79;21182;-68
2023/07/14 11:10:16;;;;;;;3.27;1.60;;;29.30;99.90;;;;;;1757369;80;21245;-67
2023/07/14 11:12:51;;;;;;;5.22;1.87;;;29.30;99.90;;;;;;1756183;79;21729;-67
2023/07/14 11:15:28;;;;;;;5.58;1.70;;;29.30;99.90;;;;;;1753020;80;21595;-67
2023/07/14 11:18:12;;;;;;;5.53;2.50;;;29.40;99.90;;;;;;1763416;80;21088;-67
2023/07/14 11:21:04;;;;;;;6.22;2.27;;;29.30;99.90;;;;;;1770353;80;21212;-66
2023/07/14 11:23:56;;;;;;;5.42;2.00;;;29.40;99.90;;;;;;1799150;78;21197;-67
2023/07/14 11:26:33;;;;;;;;;;;29.30;99.90;;;;;;1758783;79;21152;-66
2023/07/14 11:29:20;;;;;;;10.55;4.25;;;29.30;99.90;;;;;;1774343;80;20463;-66
2023/07/14 11:31:58;;;;;;;6.87;2.40;;;29.40;99.90;;;;;;1759163;80;21175;-68
2023/07/14 11:34:46;;;;;;;9.33;2.52;;;29.40;99.90;;;;;;1757462;80;21155;-69
2023/07/14 11:37:38;;;;;;;8.33;2.83;;;29.50;99.90;;;;;;1760914;80;21119;-66
2023/07/14 11:40:20;;;;;;;8.95;2.42;;;29.50;99.90;;;;;;1766864;79;21755;-66
2023/07/14 11:42:54;;;;;;;7.78;2.37;;;29.50;99.90;;;;;;1769078;80;21186;-67
2023/07/14 11:45:28;;;;;;;7.22;3.08;;;29.60;99.90;;;;;;1764346;79;21222;-67
2023/07/14 11:48:02;;;;;;;6.97;2.67;;;29.40;99.90;;;;;;1757983;80;21191;-70
2023/07/14 11:50:35;;;;;;;7.25;2.58;;;29.40;99.90;;;;;;1799354;78;21107;-68
2023/07/14 11:53:12;;;;;;;6.05;2.72;;;29.50;99.90;;;;;;1771530;80;21181;-68
2023/07/14 11:55:47;;;;;;;7.45;3.33;;;29.40;99.90;;;;;;1772312;80;21190;-68
2023/07/14 11:58:27;;;;;;;6.47;2.70;;;29.40;99.90;;;;;;1771731;79;21179;-69
2023/07/14 12:01:04;;;;;;;8.83;3.00;;;29.40;99.90;;;;;;1807053;78;21239;-68
2023/07/14 12:03:43;;;;;;;21.42;12.82;;;29.50;99.90;;;;;;1777469;79;21207;-66
2023/07/14 12:06:21;;;;;;;14.80;7.50;;;29.50;99.90;;;;;;1826025;77;21159;-67
2023/07/14 12:09:11;;;;;;;9.40;5.58;;;29.70;99.90;;;;;;1794836;79;21100;-67
2023/07/14 12:11:44;;;;;;;11.45;4.45;;;29.50;99.90;;;;;;1824660;77;21216;-66
2023/07/14 12:14:37;;;;;;;12.00;4.10;;;29.70;99.90;;;;;;1825451;77;21146;-67
2023/07/14 12:17:39;;;;;;;11.48;4.92;;;29.60;99.90;;;;;;1799266;78;21177;-66
2023/07/14 12:20:18;;;;;;;11.80;5.20;;;29.50;99.90;;;;;;1764678;79;21143;-68
2023/07/14 12:23:08;;;;;;;13.95;6.08;;;29.50;99.90;;;;;;1828484;77;21544;-67
2023/07/14 12:25:47;;;;;;;12.63;7.25;;;29.40;99.90;;;;;;1826355;77;21089;-67
2023/07/14 12:28:25;;;;;;;16.07;7.75;;;29.40;99.90;;;;;;1824623;77;21096;-67
2023/07/14 12:30:59;;;;;;;18.02;7.70;;;29.40;99.90;;;;;;1803761;77;21143;-66
2023/07/14 12:33:31;;;;;;;17.92;5.95;;;29.40;99.90;;;;;;1796548;79;21573;-69
2023/07/14 12:36:05;;;;;;;11.33;5.08;;;29.30;99.90;;;;;;1811415;78;21620;-67
2023/07/14 12:38:37;;;;;;;13.00;5.05;;;29.40;99.90;;;;;;1806103;78;21111;-68
2023/07/14 12:41:10;;;;;;;12.20;4.78;;;29.40;99.90;;;;;;1853984;77;21549;-67
2023/07/14 12:43:56;;;;;;;11.53;4.95;;;29.40;99.90;;;;;;1804836;79;21083;-66
2023/07/14 12:46:35;;;;;;;10.40;4.30;;;29.40;99.90;;;;;;1812311;78;21090;-68
2023/07/14 12:49:22;;;;;;;9.90;3.87;;;29.30;99.90;;;;;;1805368;78;21201;-68
2023/07/14 12:51:56;;;;;;;9.00;3.92;;;29.30;99.90;;;;;;1813995;78;21126;-66
2023/07/14 12:54:29;;;;;;;8.30;3.55;;;29.20;99.90;;;;;;1817554;78;21122;-67
2023/07/14 12:57:02;;;;;;;10.90;3.95;;;29.20;99.90;;;;;;1809508;78;21201;-69
2023/07/14 12:59:35;;;;;;;12.03;5.30;;;29.10;99.90;;;;;;1793768;78;21144;-67
2023/07/14 13:02:12;;;;;;;8.78;3.52;;;29.10;99.90;;;;;;1831722;77;21181;-67
2023/07/14 13:04:47;;;;;;;7.00;2.87;;;29.20;99.90;;;;;;1809657;78;21525;-67
2023/07/14 13:07:25;;;;;;;7.35;3.22;;;29.10;99.90;;;;;;1788670;79;21213;-68
2023/07/14 13:10:02;;;;;;;6.20;2.83;;;29.10;99.90;;;;;;1782300;79;21141;-68
2023/07/14 13:12:35;;;;;;;5.75;2.70;;;29.10;99.90;;;;;;1803372;79;21132;-68
2023/07/14 13:15:11;;;;;;;5.83;2.60;;;29.10;99.90;;;;;;1824293;78;21129;-68
2023/07/14 13:17:46;;;;;;;5.05;2.62;;;29.10;99.90;;;;;;1801379;79;21291;-68
2023/07/14 13:20:22;;;;;;;5.08;2.70;;;29.10;99.90;;;;;;1791860;79;21722;-67
2023/07/14 13:23:11;;;;;;;6.70;2.60;;;29.20;99.90;;;;;;1801716;78;21092;-67
2023/07/14 13:26:03;;;;;;;6.00;2.62;;;29.10;99.90;;;;;;1796654;78;21120;-68
2023/07/14 13:28:38;;;;;;;20.77;13.83;;;29.10;99.90;;;;;;1821518;77;21591;-67
2023/07/14 13:31:19;;;;;;;7.62;4.50;;;29.00;99.90;;;;;;1796794;78;21549;-67